KTOR/TOR METAR and TAF weather

Enter ICAO airport designator
Station Type Date Time Source
KTOR METAR 2022/12/10 01:53 UTC NOAA

KTOR 100153Z AUTO 29014G32KT 10SM CLR 03/M07 A2994 RMK AO2 PK WND 30032/0148 SLP175 T00331072


Station Type Date Time Source
KTOR Decoded METAR 2022/12/10 01:53 UTC NOAA

TORRINGTON MUNICIPAL AIRPORT, WY, United States (KTOR) 42-03N 104-09W 1277M
Dec 09, 2022 - 08:53 PM EST / 2022.12.10 0153 UTC
Wind: from the WNW (290 degrees) at 16 MPH (14 KT) gusting to 37 MPH (32 KT):0
Visibility: 10 mile(s):0
Sky conditions: clear
Temperature: 37.9 F (3.3 C)
Dew Point: 19.0 F (-7.2 C)
Relative Humidity: 46%
Pressure (altimeter): 29.94 in. Hg (1013 hPa)
ob: KTOR 100153Z AUTO 29014G32KT 10SM CLR 03/M07 A2994 RMK AO2 PK WND 30032/0148 SLP175 T00331072
cycle: 2

Station Type Date Time Source
KTOR TAF UTC NOAA

Error!

Example: see airport list